Waterview, Kentucky
Current Conditions -  °F | °C
As of 10:35 AM on Sunday 21 Dec 2014 (Local Time) from KGLW Reporting Station
Clear Clear  
Wind Chill: 39°   Ceiling: Unl
Heat Index: 42°   Visibility: 10mi
Dew Point: 30°   Wind: 5mph
Humidity: 62%   Direction: 70°ENE
Pressure: 30.23"   Gusts: NA
Location:  36.82°N, 85.46°W
Report Text: KGLW 211635Z AUTO 07004KT 10SM CLR 06/M01 A3023 RMK AO2 T00551013
Loading
Personal Weather Stations






























Interactive Weather Map New forecast layout! Learn more

10-Day Weather Forecast

Advertisements
Track Severe Weather on mobile